Ronnie Rogers — WDD2270 — position and weather

sailwx.info

Track history (hours):
 
Tides and Currents Weather Stations Pressure Air Temp Water Temp Dewpoint Dewpoint Depression Visibility Wind Speed Wind Dir Waves Ship Positions

Ronnie Rogers

Owner: Florida Marine, LLC, Mandeville, LA. More information available from US FCC via Universal Licensing System and Coast Guard Vessel Documentation Center.

Last reported at 2017-Feb-22 06:16 UTC. Time now 2017-Feb-22 08:32 UTC.
Position N 29°46' W 095°05'.

Length 27 m; draft 2.4 m.

Type: Towing. MMSI: 367113160.

Date/timePositionNaut miles runAvg speedWind from/ knotsBaromVisibWave heightAir tempDewpointWater temp
2017-Feb-22 06:16N 29°46' W 095°05'1 0.5
2017-Feb-22 04:04N 29°47' W 095°05'  
2017-Feb-16 20:07N 29°46' W 095°06'1 1.0
2017-Feb-16 19:24N 29°46' W 095°05'2 0.9
2017-Feb-16 17:33N 29°45' W 095°06'3 1.0
2017-Feb-16 14:34N 29°45' W 095°10'3 3.0
2017-Feb-16 13:33N 29°46' W 095°07'1 0.1
2017-Feb-15 20:06N 29°45' W 095°06'3 3.3
2017-Feb-15 19:20N 29°47' W 095°04'1 0.8
2017-Feb-15 18:15N 29°47' W 095°04'  
Track history (hours):
 
Tides and Currents Weather Stations Pressure Air Temp Water Temp Dewpoint Dewpoint Depression Visibility Wind Speed Wind Dir Waves Ship Positions

Ronnie Rogers

Owner: Florida Marine, LLC, Mandeville, LA. More information available from US FCC via Universal Licensing System and Coast Guard Vessel Documentation Center.

Last reported at 2017-Feb-22 06:16 UTC. Time now 2017-Feb-22 08:32 UTC.
Position N 29°46' W 095°05'.

Length 27 m; draft 2.4 m.

Type: Towing. MMSI: 367113160.

Date/timePositionNaut miles runAvg speedWind from/ knotsBaromVisibWave heightAir tempDewpointWater temp
2017-Feb-22 06:16N 29°46' W 095°05'1 0.5
2017-Feb-22 04:04N 29°47' W 095°05'  
2017-Feb-16 20:07N 29°46' W 095°06'1 1.0
2017-Feb-16 19:24N 29°46' W 095°05'2 0.9
2017-Feb-16 17:33N 29°45' W 095°06'3 1.0
2017-Feb-16 14:34N 29°45' W 095°10'3 3.0
2017-Feb-16 13:33N 29°46' W 095°07'1 0.1
2017-Feb-15 20:06N 29°45' W 095°06'3 3.3
2017-Feb-15 19:20N 29°47' W 095°04'1 0.8
2017-Feb-15 18:15N 29°47' W 095°04'  

Dump ship's entire track history